sensor_id;sensor_type;location;lat;lon;timestamp;P1;durP1;ratioP1;P2;durP2;ratioP2
25509;SDS011;13413;52.336;21.200;2023-02-28T00:01:01;472.30;;;191.90;;
25509;SDS011;13413;52.336;21.200;2023-02-28T00:03:55;510.30;;;208.10;;
25509;SDS011;13413;52.336;21.200;2023-02-28T00:06:49;403.00;;;170.20;;
25509;SDS011;13413;52.336;21.200;2023-02-28T00:09:43;679.60;;;291.70;;
25509;SDS011;13413;52.336;21.200;2023-02-28T00:12:37;621.40;;;252.50;;
25509;SDS011;13413;52.336;21.200;2023-02-28T00:15:32;464.00;;;195.40;;
25509;SDS011;13413;52.336;21.200;2023-02-28T00:18:26;493.20;;;191.30;;
25509;SDS011;13413;52.336;21.200;2023-02-28T00:21:20;380.00;;;155.00;;
25509;SDS011;13413;52.336;21.200;2023-02-28T00:24:14;386.80;;;166.90;;
25509;SDS011;13413;52.336;21.200;2023-02-28T00:27:08;475.60;;;188.40;;
25509;SDS011;13413;52.336;21.200;2023-02-28T00:30:03;461.90;;;181.80;;
25509;SDS011;13413;52.336;21.200;2023-02-28T00:33:01;409.40;;;162.40;;
25509;SDS011;13413;52.336;21.200;2023-02-28T00:36:02;332.00;;;133.70;;
25509;SDS011;13413;52.336;21.200;2023-02-28T00:38:59;302.90;;;127.10;;
25509;SDS011;13413;52.336;21.200;2023-02-28T00:41:53;207.90;;;88.40;;
25509;SDS011;13413;52.336;21.200;2023-02-28T00:44:47;244.50;;;104.40;;
25509;SDS011;13413;52.336;21.200;2023-02-28T00:47:41;237.90;;;96.40;;
25509;SDS011;13413;52.336;21.200;2023-02-28T00:50:35;186.50;;;83.00;;
25509;SDS011;13413;52.336;21.200;2023-02-28T01:02:58;185.60;;;82.90;;
25509;SDS011;13413;52.336;21.200;2023-02-28T01:05:52;178.20;;;83.30;;
25509;SDS011;13413;52.336;21.200;2023-02-28T01:08:46;195.40;;;87.00;;
25509;SDS011;13413;52.336;21.200;2023-02-28T01:11:40;200.10;;;89.30;;
25509;SDS011;13413;52.336;21.200;2023-02-28T01:14:35;236.50;;;100.00;;
25509;SDS011;13413;52.336;21.200;2023-02-28T01:17:29;239.30;;;104.20;;
25509;SDS011;13413;52.336;21.200;2023-02-28T01:20:23;300.90;;;125.20;;
25509;SDS011;13413;52.336;21.200;2023-02-28T01:23:17;288.80;;;118.90;;
25509;SDS011;13413;52.336;21.200;2023-02-28T01:26:13;436.10;;;189.00;;
25509;SDS011;13413;52.336;21.200;2023-02-28T01:29:26;533.30;;;235.60;;
25509;SDS011;13413;52.336;21.200;2023-02-28T01:32:20;524.10;;;251.90;;
25509;SDS011;13413;52.336;21.200;2023-02-28T01:35:14;618.20;;;292.80;;
25509;SDS011;13413;52.336;21.200;2023-02-28T01:38:11;710.30;;;337.10;;
25509;SDS011;13413;52.336;21.200;2023-02-28T01:41:05;639.80;;;305.80;;
25509;SDS011;13413;52.336;21.200;2023-02-28T01:44:01;578.60;;;272.10;;
25509;SDS011;13413;52.336;21.200;2023-02-28T01:46:56;548.90;;;259.70;;
25509;SDS011;13413;52.336;21.200;2023-02-28T01:49:50;368.80;;;160.00;;
25509;SDS011;13413;52.336;21.200;2023-02-28T01:52:45;439.10;;;194.60;;
25509;SDS011;13413;52.336;21.200;2023-02-28T01:55:41;404.10;;;180.80;;
25509;SDS011;13413;52.336;21.200;2023-02-28T01:58:39;412.30;;;186.50;;
25509;SDS011;13413;52.336;21.200;2023-02-28T02:01:33;401.40;;;187.60;;
25509;SDS011;13413;52.336;21.200;2023-02-28T02:04:31;388.50;;;167.40;;
25509;SDS011;13413;52.336;21.200;2023-02-28T02:07:30;353.70;;;159.10;;
25509;SDS011;13413;52.336;21.200;2023-02-28T02:10:27;321.90;;;141.30;;
25509;SDS011;13413;52.336;21.200;2023-02-28T02:13:30;308.20;;;135.90;;
25509;SDS011;13413;52.336;21.200;2023-02-28T02:16:40;275.70;;;127.20;;
25509;SDS011;13413;52.336;21.200;2023-02-28T02:26:45;314.00;;;145.40;;
25509;SDS011;13413;52.336;21.200;2023-02-28T02:29:50;320.80;;;154.80;;
25509;SDS011;13413;52.336;21.200;2023-02-28T02:33:04;300.60;;;144.20;;
25509;SDS011;13413;52.336;21.200;2023-02-28T02:36:11;307.00;;;142.70;;
25509;SDS011;13413;52.336;21.200;2023-02-28T02:39:11;315.70;;;144.10;;
25509;SDS011;13413;52.336;21.200;2023-02-28T02:42:19;315.20;;;143.50;;
25509;SDS011;13413;52.336;21.200;2023-02-28T02:45:17;278.50;;;131.20;;
25509;SDS011;13413;52.336;21.200;2023-02-28T02:48:15;274.80;;;125.90;;
25509;SDS011;13413;52.336;21.200;2023-02-28T02:51:13;256.50;;;119.40;;
25509;SDS011;13413;52.336;21.200;2023-02-28T02:54:10;249.60;;;110.20;;
25509;SDS011;13413;52.336;21.200;2023-02-28T02:57:08;253.80;;;115.10;;
25509;SDS011;13413;52.336;21.200;2023-02-28T03:00:07;249.90;;;111.80;;
25509;SDS011;13413;52.336;21.200;2023-02-28T03:03:04;239.00;;;113.30;;
25509;SDS011;13413;52.336;21.200;2023-02-28T03:06:00;249.10;;;112.40;;
25509;SDS011;13413;52.336;21.200;2023-02-28T03:08:56;248.60;;;113.30;;
25509;SDS011;13413;52.336;21.200;2023-02-28T03:11:51;233.60;;;106.70;;
25509;SDS011;13413;52.336;21.200;2023-02-28T03:23:13;228.50;;;107.90;;
25509;SDS011;13413;52.336;21.200;2023-02-28T03:26:11;231.60;;;104.30;;
25509;SDS011;13413;52.336;21.200;2023-02-28T03:29:13;220.00;;;100.90;;
25509;SDS011;13413;52.336;21.200;2023-02-28T03:32:14;223.90;;;102.10;;
25509;SDS011;13413;52.336;21.200;2023-02-28T03:35:16;223.50;;;104.00;;
25509;SDS011;13413;52.336;21.200;2023-02-28T03:38:15;225.90;;;104.90;;
25509;SDS011;13413;52.336;21.200;2023-02-28T03:41:15;236.40;;;108.90;;
25509;SDS011;13413;52.336;21.200;2023-02-28T03:44:13;224.70;;;106.40;;
25509;SDS011;13413;52.336;21.200;2023-02-28T03:47:11;222.30;;;105.80;;
25509;SDS011;13413;52.336;21.200;2023-02-28T03:50:09;230.70;;;110.40;;
25509;SDS011;13413;52.336;21.200;2023-02-28T03:53:07;230.80;;;107.70;;
25509;SDS011;13413;52.336;21.200;2023-02-28T03:56:07;238.70;;;110.60;;
25509;SDS011;13413;52.336;21.200;2023-02-28T03:59:09;224.00;;;103.30;;
25509;SDS011;13413;52.336;21.200;2023-02-28T04:02:08;232.90;;;105.10;;
25509;SDS011;13413;52.336;21.200;2023-02-28T04:05:02;209.60;;;98.80;;
25509;SDS011;13413;52.336;21.200;2023-02-28T04:08:04;204.20;;;93.00;;
25509;SDS011;13413;52.336;21.200;2023-02-28T04:11:00;181.70;;;89.90;;
25509;SDS011;13413;52.336;21.200;2023-02-28T04:13:58;204.30;;;93.70;;
25509;SDS011;13413;52.336;21.200;2023-02-28T04:16:52;211.00;;;96.30;;
25509;SDS011;13413;52.336;21.200;2023-02-28T04:19:46;205.70;;;90.20;;
25509;SDS011;13413;52.336;21.200;2023-02-28T04:22:40;203.70;;;91.60;;
25509;SDS011;13413;52.336;21.200;2023-02-28T04:25:34;145.00;;;65.90;;
25509;SDS011;13413;52.336;21.200;2023-02-28T04:28:28;195.40;;;91.10;;
25509;SDS011;13413;52.336;21.200;2023-02-28T04:31:22;187.20;;;84.60;;
25509;SDS011;13413;52.336;21.200;2023-02-28T04:34:16;203.80;;;86.30;;
25509;SDS011;13413;52.336;21.200;2023-02-28T04:37:10;161.80;;;76.00;;
25509;SDS011;13413;52.336;21.200;2023-02-28T04:40:04;119.80;;;52.50;;
25509;SDS011;13413;52.336;21.200;2023-02-28T04:43:00;136.90;;;64.60;;
25509;SDS011;13413;52.336;21.200;2023-02-28T04:45:54;139.80;;;62.80;;
25509;SDS011;13413;52.336;21.200;2023-02-28T04:48:49;129.90;;;59.90;;
25509;SDS011;13413;52.336;21.200;2023-02-28T04:51:43;94.50;;;44.40;;
25509;SDS011;13413;52.336;21.200;2023-02-28T04:54:52;129.60;;;57.60;;
25509;SDS011;13413;52.336;21.200;2023-02-28T04:57:46;124.70;;;55.10;;
25509;SDS011;13413;52.336;21.200;2023-02-28T05:00:40;90.50;;;42.70;;
25509;SDS011;13413;52.336;21.200;2023-02-28T05:03:34;117.40;;;55.50;;
25509;SDS011;13413;52.336;21.200;2023-02-28T05:06:28;117.40;;;54.90;;
25509;SDS011;13413;52.336;21.200;2023-02-28T05:09:24;116.20;;;54.40;;
25509;SDS011;13413;52.336;21.200;2023-02-28T05:12:18;117.00;;;54.00;;
25509;SDS011;13413;52.336;21.200;2023-02-28T05:15:12;103.90;;;51.80;;
25509;SDS011;13413;52.336;21.200;2023-02-28T05:18:09;111.70;;;52.70;;
25509;SDS011;13413;52.336;21.200;2023-02-28T05:21:03;120.70;;;56.40;;
25509;SDS011;13413;52.336;21.200;2023-02-28T05:26:51;117.80;;;54.80;;
25509;SDS011;13413;52.336;21.200;2023-02-28T05:29:46;118.30;;;54.10;;
25509;SDS011;13413;52.336;21.200;2023-02-28T05:32:40;89.60;;;42.80;;
25509;SDS011;13413;52.336;21.200;2023-02-28T05:43:11;131.30;;;60.00;;
25509;SDS011;13413;52.336;21.200;2023-02-28T05:46:06;128.50;;;57.00;;
25509;SDS011;13413;52.336;21.200;2023-02-28T05:49:02;119.00;;;57.70;;
25509;SDS011;13413;52.336;21.200;2023-02-28T05:51:56;124.80;;;58.80;;
25509;SDS011;13413;52.336;21.200;2023-02-28T05:54:50;115.50;;;54.40;;
25509;SDS011;13413;52.336;21.200;2023-02-28T05:57:44;111.10;;;55.60;;
25509;SDS011;13413;52.336;21.200;2023-02-28T06:00:38;95.30;;;45.70;;
25509;SDS011;13413;52.336;21.200;2023-02-28T06:03:32;107.10;;;54.90;;
25509;SDS011;13413;52.336;21.200;2023-02-28T06:06:26;93.20;;;40.50;;
25509;SDS011;13413;52.336;21.200;2023-02-28T06:09:20;120.20;;;55.70;;
25509;SDS011;13413;52.336;21.200;2023-02-28T06:12:14;135.40;;;56.90;;
25509;SDS011;13413;52.336;21.200;2023-02-28T06:15:09;114.90;;;54.90;;
25509;SDS011;13413;52.336;21.200;2023-02-28T06:18:06;118.70;;;53.50;;
25509;SDS011;13413;52.336;21.200;2023-02-28T06:21:07;113.80;;;55.30;;
25509;SDS011;13413;52.336;21.200;2023-02-28T06:24:02;117.60;;;59.50;;
25509;SDS011;13413;52.336;21.200;2023-02-28T06:26:56;128.40;;;58.30;;
25509;SDS011;13413;52.336;21.200;2023-02-28T06:29:53;109.40;;;54.10;;
25509;SDS011;13413;52.336;21.200;2023-02-28T06:32:47;112.20;;;57.20;;
25509;SDS011;13413;52.336;21.200;2023-02-28T06:35:42;97.10;;;46.00;;
25509;SDS011;13413;52.336;21.200;2023-02-28T06:38:39;129.80;;;62.20;;
25509;SDS011;13413;52.336;21.200;2023-02-28T06:41:35;126.80;;;63.40;;
25509;SDS011;13413;52.336;21.200;2023-02-28T06:48:50;144.70;;;70.40;;
25509;SDS011;13413;52.336;21.200;2023-02-28T06:51:44;159.10;;;77.90;;
25509;SDS011;13413;52.336;21.200;2023-02-28T06:54:38;128.50;;;53.30;;
25509;SDS011;13413;52.336;21.200;2023-02-28T06:57:34;153.00;;;75.30;;
25509;SDS011;13413;52.336;21.200;2023-02-28T07:00:28;147.80;;;74.50;;
25509;SDS011;13413;52.336;21.200;2023-02-28T07:03:22;115.10;;;56.90;;
25509;SDS011;13413;52.336;21.200;2023-02-28T07:06:16;126.10;;;62.20;;
25509;SDS011;13413;52.336;21.200;2023-02-28T07:09:10;197.20;;;100.00;;
25509;SDS011;13413;52.336;21.200;2023-02-28T07:12:04;126.10;;;62.70;;
25509;SDS011;13413;52.336;21.200;2023-02-28T07:14:59;160.40;;;80.80;;
25509;SDS011;13413;52.336;21.200;2023-02-28T07:17:53;166.90;;;82.00;;
25509;SDS011;13413;52.336;21.200;2023-02-28T07:20:47;143.30;;;64.80;;
25509;SDS011;13413;52.336;21.200;2023-02-28T07:23:41;139.10;;;62.30;;
25509;SDS011;13413;52.336;21.200;2023-02-28T07:26:35;123.50;;;60.40;;
25509;SDS011;13413;52.336;21.200;2023-02-28T07:29:30;125.70;;;59.70;;
25509;SDS011;13413;52.336;21.200;2023-02-28T07:32:24;123.00;;;58.80;;
25509;SDS011;13413;52.336;21.200;2023-02-28T07:35:18;115.00;;;55.30;;
25509;SDS011;13413;52.336;21.200;2023-02-28T07:38:12;59.50;;;29.50;;
25509;SDS011;13413;52.336;21.200;2023-02-28T07:56:01;45.70;;;23.40;;
25509;SDS011;13413;52.336;21.200;2023-02-28T07:58:55;37.10;;;21.10;;
25509;SDS011;13413;52.336;21.200;2023-02-28T08:01:50;27.70;;;16.20;;
25509;SDS011;13413;52.336;21.200;2023-02-28T08:04:44;45.40;;;23.90;;
25509;SDS011;13413;52.336;21.200;2023-02-28T08:07:38;43.20;;;23.80;;
25509;SDS011;13413;52.336;21.200;2023-02-28T08:13:26;29.80;;;18.10;;
25509;SDS011;13413;52.336;21.200;2023-02-28T08:19:13;37.70;;;19.60;;
25509;SDS011;13413;52.336;21.200;2023-02-28T08:22:07;29.70;;;15.70;;
25509;SDS011;13413;52.336;21.200;2023-02-28T08:25:02;42.20;;;22.70;;
25509;SDS011;13413;52.336;21.200;2023-02-28T08:30:52;40.20;;;21.10;;
25509;SDS011;13413;52.336;21.200;2023-02-28T08:33:47;37.10;;;20.90;;
25509;SDS011;13413;52.336;21.200;2023-02-28T08:36:41;35.20;;;20.50;;
25509;SDS011;13413;52.336;21.200;2023-02-28T08:39:35;71.60;;;24.80;;
25509;SDS011;13413;52.336;21.200;2023-02-28T08:42:29;35.20;;;20.90;;
25509;SDS011;13413;52.336;21.200;2023-02-28T08:45:24;33.40;;;19.90;;
25509;SDS011;13413;52.336;21.200;2023-02-28T08:48:18;36.10;;;20.50;;
25509;SDS011;13413;52.336;21.200;2023-02-28T08:51:13;30.30;;;17.00;;
25509;SDS011;13413;52.336;21.200;2023-02-28T08:54:09;38.50;;;20.40;;
25509;SDS011;13413;52.336;21.200;2023-02-28T08:57:03;41.90;;;23.70;;
25509;SDS011;13413;52.336;21.200;2023-02-28T09:00:04;41.70;;;21.20;;
25509;SDS011;13413;52.336;21.200;2023-02-28T09:03:07;37.10;;;19.10;;
25509;SDS011;13413;52.336;21.200;2023-02-28T09:06:01;32.20;;;19.70;;
25509;SDS011;13413;52.336;21.200;2023-02-28T09:08:57;27.50;;;15.20;;
25509;SDS011;13413;52.336;21.200;2023-02-28T09:11:51;51.20;;;25.80;;
25509;SDS011;13413;52.336;21.200;2023-02-28T09:14:47;46.40;;;22.30;;
25509;SDS011;13413;52.336;21.200;2023-02-28T09:17:41;34.60;;;19.90;;
25509;SDS011;13413;52.336;21.200;2023-02-28T09:20:35;24.30;;;14.90;;
25509;SDS011;13413;52.336;21.200;2023-02-28T09:23:31;35.80;;;19.40;;
25509;SDS011;13413;52.336;21.200;2023-02-28T09:26:26;30.00;;;17.40;;
25509;SDS011;13413;52.336;21.200;2023-02-28T09:32:12;31.80;;;17.60;;
25509;SDS011;13413;52.336;21.200;2023-02-28T09:38:03;23.60;;;14.50;;
25509;SDS011;13413;52.336;21.200;2023-02-28T09:40:57;27.90;;;15.10;;
25509;SDS011;13413;52.336;21.200;2023-02-28T09:43:53;24.10;;;15.20;;
25509;SDS011;13413;52.336;21.200;2023-02-28T09:46:52;30.30;;;16.00;;
25509;SDS011;13413;52.336;21.200;2023-02-28T09:49:49;23.80;;;15.60;;
25509;SDS011;13413;52.336;21.200;2023-02-28T09:55:41;28.30;;;15.40;;
25509;SDS011;13413;52.336;21.200;2023-02-28T09:58:39;27.60;;;15.70;;
25509;SDS011;13413;52.336;21.200;2023-02-28T10:01:42;25.80;;;14.70;;
25509;SDS011;13413;52.336;21.200;2023-02-28T10:04:44;22.50;;;14.70;;
25509;SDS011;13413;52.336;21.200;2023-02-28T10:16:50;24.80;;;16.10;;
25509;SDS011;13413;52.336;21.200;2023-02-28T10:19:49;50.60;;;31.90;;
25509;SDS011;13413;52.336;21.200;2023-02-28T10:22:52;44.60;;;20.90;;
25509;SDS011;13413;52.336;21.200;2023-02-28T10:25:58;27.50;;;17.80;;
25509;SDS011;13413;52.336;21.200;2023-02-28T10:29:04;32.00;;;17.10;;
25509;SDS011;13413;52.336;21.200;2023-02-28T10:32:01;30.40;;;19.50;;
25509;SDS011;13413;52.336;21.200;2023-02-28T10:34:56;30.30;;;21.20;;
25509;SDS011;13413;52.336;21.200;2023-02-28T10:37:53;26.40;;;16.50;;
25509;SDS011;13413;52.336;21.200;2023-02-28T10:40:49;28.20;;;14.10;;
25509;SDS011;13413;52.336;21.200;2023-02-28T10:43:55;25.10;;;15.10;;
25509;SDS011;13413;52.336;21.200;2023-02-28T10:47:08;29.50;;;18.30;;
25509;SDS011;13413;52.336;21.200;2023-02-28T10:50:10;25.80;;;14.60;;
25509;SDS011;13413;52.336;21.200;2023-02-28T10:53:28;19.00;;;12.90;;
25509;SDS011;13413;52.336;21.200;2023-02-28T10:56:28;20.30;;;13.20;;
25509;SDS011;13413;52.336;21.200;2023-02-28T10:59:30;14.70;;;9.00;;
25509;SDS011;13413;52.336;21.200;2023-02-28T11:02:32;38.70;;;16.00;;
25509;SDS011;13413;52.336;21.200;2023-02-28T11:05:28;19.90;;;12.10;;
25509;SDS011;13413;52.336;21.200;2023-02-28T11:08:24;49.70;;;17.30;;
25509;SDS011;13413;52.336;21.200;2023-02-28T11:11:18;25.20;;;15.90;;
25509;SDS011;13413;52.336;21.200;2023-02-28T11:14:17;21.00;;;14.50;;
25509;SDS011;13413;52.336;21.200;2023-02-28T11:17:15;24.00;;;14.50;;
25509;SDS011;13413;52.336;21.200;2023-02-28T11:20:18;49.10;;;17.80;;
25509;SDS011;13413;52.336;21.200;2023-02-28T11:23:15;18.00;;;13.30;;
25509;SDS011;13413;52.336;21.200;2023-02-28T11:26:10;20.00;;;14.50;;
25509;SDS011;13413;52.336;21.200;2023-02-28T11:29:08;22.50;;;14.70;;
25509;SDS011;13413;52.336;21.200;2023-02-28T11:32:15;95.60;;;21.70;;
25509;SDS011;13413;52.336;21.200;2023-02-28T11:35:16;54.20;;;16.60;;
25509;SDS011;13413;52.336;21.200;2023-02-28T11:38:15;24.30;;;14.30;;
25509;SDS011;13413;52.336;21.200;2023-02-28T11:41:12;25.70;;;14.10;;
25509;SDS011;13413;52.336;21.200;2023-02-28T11:44:30;21.90;;;13.50;;
25509;SDS011;13413;52.336;21.200;2023-02-28T11:47:36;21.20;;;13.00;;
25509;SDS011;13413;52.336;21.200;2023-02-28T11:50:44;23.40;;;15.00;;
25509;SDS011;13413;52.336;21.200;2023-02-28T11:53:50;21.50;;;15.00;;
25509;SDS011;13413;52.336;21.200;2023-02-28T11:56:54;19.00;;;13.60;;
25509;SDS011;13413;52.336;21.200;2023-02-28T11:59:54;20.20;;;14.50;;
25509;SDS011;13413;52.336;21.200;2023-02-28T12:03:03;36.80;;;21.30;;
25509;SDS011;13413;52.336;21.200;2023-02-28T12:06:13;36.30;;;16.20;;
25509;SDS011;13413;52.336;21.200;2023-02-28T12:09:20;24.30;;;15.00;;
25509;SDS011;13413;52.336;21.200;2023-02-28T12:12:37;21.60;;;14.30;;
25509;SDS011;13413;52.336;21.200;2023-02-28T12:15:43;24.20;;;13.40;;
25509;SDS011;13413;52.336;21.200;2023-02-28T12:18:51;21.00;;;13.00;;
25509;SDS011;13413;52.336;21.200;2023-02-28T12:22:03;29.20;;;16.90;;
25509;SDS011;13413;52.336;21.200;2023-02-28T12:25:18;21.30;;;13.70;;
25509;SDS011;13413;52.336;21.200;2023-02-28T12:28:35;23.00;;;14.50;;
25509;SDS011;13413;52.336;21.200;2023-02-28T12:38:29;24.80;;;18.80;;
25509;SDS011;13413;52.336;21.200;2023-02-28T12:41:29;21.90;;;13.60;;
25509;SDS011;13413;52.336;21.200;2023-02-28T12:44:28;19.80;;;12.20;;
25509;SDS011;13413;52.336;21.200;2023-02-28T12:47:26;43.30;;;16.20;;
25509;SDS011;13413;52.336;21.200;2023-02-28T12:50:19;33.00;;;21.20;;
25509;SDS011;13413;52.336;21.200;2023-02-28T12:53:13;72.30;;;44.30;;
25509;SDS011;13413;52.336;21.200;2023-02-28T12:56:15;22.20;;;15.30;;
25509;SDS011;13413;52.336;21.200;2023-02-28T12:59:14;21.60;;;15.80;;
25509;SDS011;13413;52.336;21.200;2023-02-28T13:02:26;26.80;;;18.50;;
25509;SDS011;13413;52.336;21.200;2023-02-28T13:09:05;45.30;;;22.40;;
25509;SDS011;13413;52.336;21.200;2023-02-28T13:12:01;47.40;;;26.40;;
25509;SDS011;13413;52.336;21.200;2023-02-28T13:15:08;24.30;;;16.40;;
25509;SDS011;13413;52.336;21.200;2023-02-28T13:18:20;21.70;;;13.20;;
25509;SDS011;13413;52.336;21.200;2023-02-28T13:21:30;35.90;;;20.60;;
25509;SDS011;13413;52.336;21.200;2023-02-28T13:24:43;25.90;;;17.90;;
25509;SDS011;13413;52.336;21.200;2023-02-28T13:27:53;18.10;;;12.10;;
25509;SDS011;13413;52.336;21.200;2023-02-28T13:31:03;19.60;;;11.90;;
25509;SDS011;13413;52.336;21.200;2023-02-28T13:34:14;39.70;;;22.50;;
25509;SDS011;13413;52.336;21.200;2023-02-28T13:40:33;28.60;;;13.40;;
25509;SDS011;13413;52.336;21.200;2023-02-28T13:43:36;19.50;;;11.00;;
25509;SDS011;13413;52.336;21.200;2023-02-28T13:50:18;29.00;;;17.40;;
25509;SDS011;13413;52.336;21.200;2023-02-28T13:53:36;23.10;;;14.60;;
25509;SDS011;13413;52.336;21.200;2023-02-28T13:56:47;17.50;;;14.00;;
25509;SDS011;13413;52.336;21.200;2023-02-28T13:59:58;32.10;;;14.50;;
25509;SDS011;13413;52.336;21.200;2023-02-28T14:03:18;22.60;;;14.00;;
25509;SDS011;13413;52.336;21.200;2023-02-28T14:06:26;20.50;;;12.20;;
25509;SDS011;13413;52.336;21.200;2023-02-28T14:09:23;22.50;;;13.30;;
25509;SDS011;13413;52.336;21.200;2023-02-28T14:15:48;17.30;;;11.50;;
25509;SDS011;13413;52.336;21.200;2023-02-28T14:18:51;19.50;;;12.40;;
25509;SDS011;13413;52.336;21.200;2023-02-28T14:21:55;26.10;;;15.10;;
25509;SDS011;13413;52.336;21.200;2023-02-28T14:25:07;26.90;;;16.60;;
25509;SDS011;13413;52.336;21.200;2023-02-28T14:28:11;25.60;;;17.20;;
25509;SDS011;13413;52.336;21.200;2023-02-28T14:31:11;58.70;;;27.50;;
25509;SDS011;13413;52.336;21.200;2023-02-28T14:34:20;24.20;;;16.20;;
25509;SDS011;13413;52.336;21.200;2023-02-28T14:37:28;46.30;;;22.50;;
25509;SDS011;13413;52.336;21.200;2023-02-28T14:40:27;50.40;;;27.30;;
25509;SDS011;13413;52.336;21.200;2023-02-28T14:43:24;20.30;;;13.90;;
25509;SDS011;13413;52.336;21.200;2023-02-28T14:46:20;42.60;;;24.60;;
25509;SDS011;13413;52.336;21.200;2023-02-28T14:49:17;32.60;;;15.70;;
25509;SDS011;13413;52.336;21.200;2023-02-28T14:52:22;23.70;;;13.80;;
25509;SDS011;13413;52.336;21.200;2023-02-28T14:55:28;26.70;;;15.20;;
25509;SDS011;13413;52.336;21.200;2023-02-28T14:58:24;32.40;;;14.50;;
25509;SDS011;13413;52.336;21.200;2023-02-28T15:01:20;36.70;;;18.80;;
25509;SDS011;13413;52.336;21.200;2023-02-28T15:04:18;29.90;;;17.40;;
25509;SDS011;13413;52.336;21.200;2023-02-28T15:07:16;36.70;;;19.50;;
25509;SDS011;13413;52.336;21.200;2023-02-28T15:10:13;47.80;;;21.60;;
25509;SDS011;13413;52.336;21.200;2023-02-28T15:13:12;27.80;;;17.60;;
25509;SDS011;13413;52.336;21.200;2023-02-28T15:19:18;25.20;;;14.00;;
25509;SDS011;13413;52.336;21.200;2023-02-28T15:22:17;33.90;;;16.90;;
25509;SDS011;13413;52.336;21.200;2023-02-28T15:25:17;36.70;;;21.90;;
25509;SDS011;13413;52.336;21.200;2023-02-28T15:28:15;30.20;;;18.70;;
25509;SDS011;13413;52.336;21.200;2023-02-28T15:31:19;38.30;;;21.00;;
25509;SDS011;13413;52.336;21.200;2023-02-28T15:34:19;33.40;;;17.60;;
25509;SDS011;13413;52.336;21.200;2023-02-28T15:46:10;39.10;;;21.00;;
25509;SDS011;13413;52.336;21.200;2023-02-28T15:49:23;43.10;;;17.90;;
25509;SDS011;13413;52.336;21.200;2023-02-28T15:52:27;39.90;;;23.50;;
25509;SDS011;13413;52.336;21.200;2023-02-28T15:58:22;66.30;;;32.00;;
25509;SDS011;13413;52.336;21.200;2023-02-28T16:04:14;39.80;;;21.60;;
25509;SDS011;13413;52.336;21.200;2023-02-28T16:07:21;35.80;;;19.50;;
25509;SDS011;13413;52.336;21.200;2023-02-28T16:10:15;36.90;;;23.40;;
25509;SDS011;13413;52.336;21.200;2023-02-28T16:13:09;45.10;;;26.10;;
25509;SDS011;13413;52.336;21.200;2023-02-28T16:16:05;47.20;;;26.90;;
25509;SDS011;13413;52.336;21.200;2023-02-28T16:18:59;67.90;;;34.40;;
25509;SDS011;13413;52.336;21.200;2023-02-28T16:22:00;81.00;;;38.90;;
25509;SDS011;13413;52.336;21.200;2023-02-28T16:24:54;104.60;;;49.40;;
25509;SDS011;13413;52.336;21.200;2023-02-28T16:27:49;94.40;;;46.80;;
25509;SDS011;13413;52.336;21.200;2023-02-28T16:30:52;101.80;;;53.80;;
25509;SDS011;13413;52.336;21.200;2023-02-28T16:33:54;108.40;;;55.30;;
25509;SDS011;13413;52.336;21.200;2023-02-28T16:36:47;125.30;;;60.00;;
25509;SDS011;13413;52.336;21.200;2023-02-28T16:39:42;115.30;;;56.60;;
25509;SDS011;13413;52.336;21.200;2023-02-28T16:42:37;109.00;;;54.90;;
25509;SDS011;13413;52.336;21.200;2023-02-28T16:45:31;98.50;;;49.40;;
25509;SDS011;13413;52.336;21.200;2023-02-28T16:48:26;147.40;;;46.70;;
25509;SDS011;13413;52.336;21.200;2023-02-28T16:51:19;135.60;;;47.20;;
25509;SDS011;13413;52.336;21.200;2023-02-28T16:54:14;84.90;;;36.80;;
25509;SDS011;13413;52.336;21.200;2023-02-28T16:57:09;101.50;;;36.00;;
25509;SDS011;13413;52.336;21.200;2023-02-28T17:00:13;114.60;;;46.70;;
25509;SDS011;13413;52.336;21.200;2023-02-28T17:03:09;139.60;;;58.70;;
25509;SDS011;13413;52.336;21.200;2023-02-28T17:06:22;137.30;;;58.90;;
25509;SDS011;13413;52.336;21.200;2023-02-28T17:09:20;132.70;;;61.50;;
25509;SDS011;13413;52.336;21.200;2023-02-28T17:12:14;113.60;;;53.70;;
25509;SDS011;13413;52.336;21.200;2023-02-28T17:15:10;114.30;;;52.40;;
25509;SDS011;13413;52.336;21.200;2023-02-28T17:18:06;104.50;;;49.20;;
25509;SDS011;13413;52.336;21.200;2023-02-28T17:21:07;161.80;;;77.00;;
25509;SDS011;13413;52.336;21.200;2023-02-28T17:24:06;122.20;;;65.90;;
25509;SDS011;13413;52.336;21.200;2023-02-28T17:27:02;112.30;;;58.20;;
25509;SDS011;13413;52.336;21.200;2023-02-28T17:29:57;162.80;;;79.30;;
25509;SDS011;13413;52.336;21.200;2023-02-28T17:32:50;172.40;;;81.40;;
25509;SDS011;13413;52.336;21.200;2023-02-28T17:35:44;172.60;;;80.70;;
25509;SDS011;13413;52.336;21.200;2023-02-28T17:38:39;138.40;;;65.80;;
25509;SDS011;13413;52.336;21.200;2023-02-28T17:41:36;153.50;;;66.20;;
25509;SDS011;13413;52.336;21.200;2023-02-28T17:44:30;150.90;;;70.10;;
25509;SDS011;13413;52.336;21.200;2023-02-28T17:50:18;207.40;;;101.80;;
25509;SDS011;13413;52.336;21.200;2023-02-28T17:53:13;215.10;;;97.60;;
25509;SDS011;13413;52.336;21.200;2023-02-28T17:56:10;184.40;;;86.80;;
25509;SDS011;13413;52.336;21.200;2023-02-28T18:16:39;168.30;;;80.00;;
25509;SDS011;13413;52.336;21.200;2023-02-28T18:19:33;157.00;;;74.70;;
25509;SDS011;13413;52.336;21.200;2023-02-28T18:22:27;168.70;;;72.60;;
25509;SDS011;13413;52.336;21.200;2023-02-28T18:28:07;189.80;;;88.10;;
25509;SDS011;13413;52.336;21.200;2023-02-28T18:31:05;131.40;;;65.10;;
25509;SDS011;13413;52.336;21.200;2023-02-28T18:34:07;225.40;;;99.30;;
25509;SDS011;13413;52.336;21.200;2023-02-28T18:37:01;339.80;;;137.20;;
25509;SDS011;13413;52.336;21.200;2023-02-28T18:39:55;314.60;;;128.10;;
25509;SDS011;13413;52.336;21.200;2023-02-28T18:42:56;307.20;;;115.30;;
25509;SDS011;13413;52.336;21.200;2023-02-28T18:45:50;288.00;;;120.00;;
25509;SDS011;13413;52.336;21.200;2023-02-28T18:48:44;308.80;;;118.80;;
25509;SDS011;13413;52.336;21.200;2023-02-28T18:54:31;228.00;;;99.70;;
25509;SDS011;13413;52.336;21.200;2023-02-28T18:57:27;264.60;;;110.10;;
25509;SDS011;13413;52.336;21.200;2023-02-28T19:00:22;259.90;;;113.20;;
25509;SDS011;13413;52.336;21.200;2023-02-28T19:03:17;261.00;;;113.30;;
25509;SDS011;13413;52.336;21.200;2023-02-28T19:06:11;260.60;;;116.90;;
25509;SDS011;13413;52.336;21.200;2023-02-28T19:09:05;296.10;;;125.00;;
25509;SDS011;13413;52.336;21.200;2023-02-28T19:11:59;243.30;;;103.00;;
25509;SDS011;13413;52.336;21.200;2023-02-28T19:14:53;287.00;;;125.50;;
25509;SDS011;13413;52.336;21.200;2023-02-28T19:17:54;310.00;;;125.60;;
25509;SDS011;13413;52.336;21.200;2023-02-28T19:20:48;285.40;;;123.40;;